sensor_id;sensor_type;location;lat;lon;timestamp;P1;durP1;ratioP1;P2;durP2;ratioP2
5710;SDS011;61291;52.524;13.422;2023-10-08T00:00:42;80.40;;;75.27;;
5710;SDS011;61291;52.524;13.422;2023-10-08T00:03:14;85.83;;;79.80;;
5710;SDS011;61291;52.524;13.422;2023-10-08T00:05:40;81.50;;;75.30;;
5710;SDS011;61291;52.524;13.422;2023-10-08T00:08:07;83.70;;;77.50;;
5710;SDS011;61291;52.524;13.422;2023-10-08T00:10:34;80.73;;;75.43;;
5710;SDS011;61291;52.524;13.422;2023-10-08T00:13:01;81.53;;;75.60;;
5710;SDS011;61291;52.524;13.422;2023-10-08T00:15:27;84.37;;;78.13;;
5710;SDS011;61291;52.524;13.422;2023-10-08T00:17:52;79.10;;;73.50;;
5710;SDS011;61291;52.524;13.422;2023-10-08T00:20:22;82.10;;;76.30;;
5710;SDS011;61291;52.524;13.422;2023-10-08T00:22:53;82.53;;;76.13;;
5710;SDS011;61291;52.524;13.422;2023-10-08T00:25:21;83.80;;;77.13;;
5710;SDS011;61291;52.524;13.422;2023-10-08T00:27:46;82.70;;;76.80;;
5710;SDS011;61291;52.524;13.422;2023-10-08T00:30:16;85.20;;;78.90;;
5710;SDS011;61291;52.524;13.422;2023-10-08T00:32:43;64.45;;;58.92;;
5710;SDS011;61291;52.524;13.422;2023-10-08T00:35:09;90.10;;;83.90;;
5710;SDS011;61291;52.524;13.422;2023-10-08T00:37:45;87.97;;;81.70;;
5710;SDS011;61291;52.524;13.422;2023-10-08T00:40:12;84.97;;;79.17;;
5710;SDS011;61291;52.524;13.422;2023-10-08T00:42:39;84.20;;;78.50;;
5710;SDS011;61291;52.524;13.422;2023-10-08T00:45:10;85.43;;;79.67;;
5710;SDS011;61291;52.524;13.422;2023-10-08T00:47:39;83.97;;;78.17;;
5710;SDS011;61291;52.524;13.422;2023-10-08T00:50:09;85.70;;;80.10;;
5710;SDS011;61291;52.524;13.422;2023-10-08T00:52:44;86.23;;;79.93;;
5710;SDS011;61291;52.524;13.422;2023-10-08T00:55:22;89.73;;;83.50;;
5710;SDS011;61291;52.524;13.422;2023-10-08T00:57:55;87.13;;;80.50;;
5710;SDS011;61291;52.524;13.422;2023-10-08T01:00:23;86.13;;;80.80;;
5710;SDS011;61291;52.524;13.422;2023-10-08T01:02:57;91.40;;;84.15;;
5710;SDS011;61291;52.524;13.422;2023-10-08T01:05:26;88.53;;;82.27;;
5710;SDS011;61291;52.524;13.422;2023-10-08T01:08:21;87.20;;;81.70;;
5710;SDS011;61291;52.524;13.422;2023-10-08T01:11:20;89.07;;;82.83;;
5710;SDS011;61291;52.524;13.422;2023-10-08T01:13:56;92.20;;;84.20;;
5710;SDS011;61291;52.524;13.422;2023-10-08T01:16:23;85.97;;;80.30;;
5710;SDS011;61291;52.524;13.422;2023-10-08T01:18:51;90.67;;;83.87;;
5710;SDS011;61291;52.524;13.422;2023-10-08T01:21:19;91.93;;;85.27;;
5710;SDS011;61291;52.524;13.422;2023-10-08T01:23:58;85.10;;;79.10;;
5710;SDS011;61291;52.524;13.422;2023-10-08T01:26:26;86.13;;;80.27;;
5710;SDS011;61291;52.524;13.422;2023-10-08T01:28:54;86.07;;;80.57;;
5710;SDS011;61291;52.524;13.422;2023-10-08T01:31:19;85.53;;;79.80;;
5710;SDS011;61291;52.524;13.422;2023-10-08T01:33:45;88.80;;;83.00;;
5710;SDS011;61291;52.524;13.422;2023-10-08T01:36:15;88.07;;;81.47;;
5710;SDS011;61291;52.524;13.422;2023-10-08T01:38:41;62.90;;;57.90;;
5710;SDS011;61291;52.524;13.422;2023-10-08T01:41:07;88.07;;;81.80;;
5710;SDS011;61291;52.524;13.422;2023-10-08T01:43:56;89.83;;;83.40;;
5710;SDS011;61291;52.524;13.422;2023-10-08T01:46:25;86.83;;;80.73;;
5710;SDS011;61291;52.524;13.422;2023-10-08T01:48:50;86.43;;;80.37;;
5710;SDS011;61291;52.524;13.422;2023-10-08T01:51:24;88.43;;;80.40;;
5710;SDS011;61291;52.524;13.422;2023-10-08T01:53:53;86.63;;;80.27;;
5710;SDS011;61291;52.524;13.422;2023-10-08T01:56:20;87.00;;;80.60;;
5710;SDS011;61291;52.524;13.422;2023-10-08T01:58:46;85.57;;;79.67;;
5710;SDS011;61291;52.524;13.422;2023-10-08T02:01:11;83.83;;;77.67;;
5710;SDS011;61291;52.524;13.422;2023-10-08T02:03:37;85.13;;;79.53;;
5710;SDS011;61291;52.524;13.422;2023-10-08T02:06:03;87.20;;;80.53;;
5710;SDS011;61291;52.524;13.422;2023-10-08T02:08:31;84.90;;;79.50;;
5710;SDS011;61291;52.524;13.422;2023-10-08T02:10:56;86.67;;;81.07;;
5710;SDS011;61291;52.524;13.422;2023-10-08T02:13:22;88.40;;;81.27;;
5710;SDS011;61291;52.524;13.422;2023-10-08T02:15:51;87.53;;;81.70;;
5710;SDS011;61291;52.524;13.422;2023-10-08T02:18:17;86.63;;;79.70;;
5710;SDS011;61291;52.524;13.422;2023-10-08T02:20:43;85.40;;;79.27;;
5710;SDS011;61291;52.524;13.422;2023-10-08T02:23:09;67.18;;;61.15;;
5710;SDS011;61291;52.524;13.422;2023-10-08T02:25:36;91.90;;;84.33;;
5710;SDS011;61291;52.524;13.422;2023-10-08T02:28:06;90.53;;;84.50;;
5710;SDS011;61291;52.524;13.422;2023-10-08T02:30:37;84.70;;;78.50;;
5710;SDS011;61291;52.524;13.422;2023-10-08T02:33:04;88.30;;;81.70;;
5710;SDS011;61291;52.524;13.422;2023-10-08T02:35:38;85.63;;;79.80;;
5710;SDS011;61291;52.524;13.422;2023-10-08T02:38:14;90.60;;;83.00;;
5710;SDS011;61291;52.524;13.422;2023-10-08T02:40:41;87.63;;;81.20;;
5710;SDS011;61291;52.524;13.422;2023-10-08T02:43:12;89.60;;;83.60;;
5710;SDS011;61291;52.524;13.422;2023-10-08T02:45:41;87.10;;;79.83;;
5710;SDS011;61291;52.524;13.422;2023-10-08T02:48:09;91.30;;;84.30;;
5710;SDS011;61291;52.524;13.422;2023-10-08T02:50:40;87.30;;;80.60;;
5710;SDS011;61291;52.524;13.422;2023-10-08T02:53:10;88.23;;;82.00;;
5710;SDS011;61291;52.524;13.422;2023-10-08T02:55:39;89.63;;;82.00;;
5710;SDS011;61291;52.524;13.422;2023-10-08T02:58:11;70.45;;;64.13;;
5710;SDS011;61291;52.524;13.422;2023-10-08T03:00:39;87.67;;;81.37;;
5710;SDS011;61291;52.524;13.422;2023-10-08T03:03:09;87.67;;;81.37;;
5710;SDS011;61291;52.524;13.422;2023-10-08T03:05:40;85.70;;;78.70;;
5710;SDS011;61291;52.524;13.422;2023-10-08T03:08:16;86.68;;;78.90;;
5710;SDS011;61291;52.524;13.422;2023-10-08T03:10:46;85.80;;;79.03;;
5710;SDS011;61291;52.524;13.422;2023-10-08T03:13:13;85.30;;;79.20;;
5710;SDS011;61291;52.524;13.422;2023-10-08T03:15:43;85.83;;;78.97;;
5710;SDS011;61291;52.524;13.422;2023-10-08T03:18:22;86.30;;;78.90;;
5710;SDS011;61291;52.524;13.422;2023-10-08T03:20:48;91.07;;;83.77;;
5710;SDS011;61291;52.524;13.422;2023-10-08T03:23:14;86.87;;;80.10;;
5710;SDS011;61291;52.524;13.422;2023-10-08T03:25:58;63.45;;;58.33;;
5710;SDS011;61291;52.524;13.422;2023-10-08T03:28:25;84.77;;;78.07;;
5710;SDS011;61291;52.524;13.422;2023-10-08T03:30:53;85.43;;;78.60;;
5710;SDS011;61291;52.524;13.422;2023-10-08T03:33:28;66.22;;;61.42;;
5710;SDS011;61291;52.524;13.422;2023-10-08T03:36:00;88.37;;;81.57;;
5710;SDS011;61291;52.524;13.422;2023-10-08T03:38:34;82.87;;;76.67;;
5710;SDS011;61291;52.524;13.422;2023-10-08T03:41:23;83.10;;;76.20;;
5710;SDS011;61291;52.524;13.422;2023-10-08T03:43:53;80.50;;;74.30;;
5710;SDS011;61291;52.524;13.422;2023-10-08T03:46:31;84.60;;;78.70;;
5710;SDS011;61291;52.524;13.422;2023-10-08T03:49:00;81.53;;;76.43;;
5710;SDS011;61291;52.524;13.422;2023-10-08T03:51:30;83.60;;;77.67;;
5710;SDS011;61291;52.524;13.422;2023-10-08T03:54:04;82.93;;;77.30;;
5710;SDS011;61291;52.524;13.422;2023-10-08T03:56:35;79.43;;;73.70;;
5710;SDS011;61291;52.524;13.422;2023-10-08T03:59:02;83.57;;;76.77;;
5710;SDS011;61291;52.524;13.422;2023-10-08T04:01:53;79.30;;;73.60;;
5710;SDS011;61291;52.524;13.422;2023-10-08T04:04:19;83.87;;;77.50;;
5710;SDS011;61291;52.524;13.422;2023-10-08T04:06:47;81.57;;;75.33;;
5710;SDS011;61291;52.524;13.422;2023-10-08T04:09:14;82.63;;;76.23;;
5710;SDS011;61291;52.524;13.422;2023-10-08T04:11:52;85.47;;;79.60;;
5710;SDS011;61291;52.524;13.422;2023-10-08T04:14:18;84.27;;;76.77;;
5710;SDS011;61291;52.524;13.422;2023-10-08T04:16:44;88.17;;;81.33;;
5710;SDS011;61291;52.524;13.422;2023-10-08T04:19:10;86.00;;;79.80;;
5710;SDS011;61291;52.524;13.422;2023-10-08T04:21:37;84.37;;;78.20;;
5710;SDS011;61291;52.524;13.422;2023-10-08T04:24:06;82.80;;;76.60;;
5710;SDS011;61291;52.524;13.422;2023-10-08T04:26:33;85.87;;;78.30;;
5710;SDS011;61291;52.524;13.422;2023-10-08T04:29:00;81.67;;;75.53;;
5710;SDS011;61291;52.524;13.422;2023-10-08T04:31:27;79.93;;;73.77;;
5710;SDS011;61291;52.524;13.422;2023-10-08T04:34:01;83.33;;;76.80;;
5710;SDS011;61291;52.524;13.422;2023-10-08T04:36:32;83.70;;;76.03;;
5710;SDS011;61291;52.524;13.422;2023-10-08T04:38:57;79.90;;;73.80;;
5710;SDS011;61291;52.524;13.422;2023-10-08T04:41:29;82.33;;;76.50;;
5710;SDS011;61291;52.524;13.422;2023-10-08T04:43:54;84.73;;;76.10;;
5710;SDS011;61291;52.524;13.422;2023-10-08T04:46:20;78.20;;;72.30;;
5710;SDS011;61291;52.524;13.422;2023-10-08T04:49:06;82.30;;;76.30;;
5710;SDS011;61291;52.524;13.422;2023-10-08T04:51:42;88.03;;;81.40;;
5710;SDS011;61291;52.524;13.422;2023-10-08T04:54:11;87.17;;;81.00;;
5710;SDS011;61291;52.524;13.422;2023-10-08T04:56:43;83.20;;;76.90;;
5710;SDS011;61291;52.524;13.422;2023-10-08T04:59:09;92.77;;;84.53;;
5710;SDS011;61291;52.524;13.422;2023-10-08T05:01:38;85.10;;;77.70;;
5710;SDS011;61291;52.524;13.422;2023-10-08T05:04:06;92.83;;;85.63;;
5710;SDS011;61291;52.524;13.422;2023-10-08T05:06:32;81.03;;;75.40;;
5710;SDS011;61291;52.524;13.422;2023-10-08T05:09:19;89.53;;;83.10;;
5710;SDS011;61291;52.524;13.422;2023-10-08T05:11:45;88.97;;;81.90;;
5710;SDS011;61291;52.524;13.422;2023-10-08T05:14:31;87.27;;;80.13;;
5710;SDS011;61291;52.524;13.422;2023-10-08T05:16:58;84.10;;;78.07;;
5710;SDS011;61291;52.524;13.422;2023-10-08T05:19:47;82.33;;;76.97;;
5710;SDS011;61291;52.524;13.422;2023-10-08T05:22:22;82.00;;;75.57;;
5710;SDS011;61291;52.524;13.422;2023-10-08T05:24:55;84.27;;;77.43;;
5710;SDS011;61291;52.524;13.422;2023-10-08T05:27:41;80.50;;;73.70;;
5710;SDS011;61291;52.524;13.422;2023-10-08T05:30:26;87.20;;;79.90;;
5710;SDS011;61291;52.524;13.422;2023-10-08T05:33:18;78.10;;;71.80;;
5710;SDS011;61291;52.524;13.422;2023-10-08T05:35:50;86.50;;;80.20;;
5710;SDS011;61291;52.524;13.422;2023-10-08T05:38:22;84.00;;;76.60;;
5710;SDS011;61291;52.524;13.422;2023-10-08T05:40:55;85.87;;;79.43;;
5710;SDS011;61291;52.524;13.422;2023-10-08T05:43:21;85.13;;;78.50;;
5710;SDS011;61291;52.524;13.422;2023-10-08T05:46:19;90.30;;;82.40;;
5710;SDS011;61291;52.524;13.422;2023-10-08T05:51:31;88.37;;;80.80;;
5710;SDS011;61291;52.524;13.422;2023-10-08T05:54:30;92.47;;;84.53;;
5710;SDS011;61291;52.524;13.422;2023-10-08T05:59:38;86.07;;;80.13;;
5710;SDS011;61291;52.524;13.422;2023-10-08T06:02:20;90.57;;;83.57;;
5710;SDS011;61291;52.524;13.422;2023-10-08T06:04:53;90.13;;;83.53;;
5710;SDS011;61291;52.524;13.422;2023-10-08T06:07:43;93.60;;;86.97;;
5710;SDS011;61291;52.524;13.422;2023-10-08T06:13:11;97.87;;;90.67;;
5710;SDS011;61291;52.524;13.422;2023-10-08T06:16:10;97.13;;;88.97;;
5710;SDS011;61291;52.524;13.422;2023-10-08T06:18:38;94.13;;;87.20;;
5710;SDS011;61291;52.524;13.422;2023-10-08T06:21:04;93.33;;;86.33;;
5710;SDS011;61291;52.524;13.422;2023-10-08T06:23:34;87.40;;;81.30;;
5710;SDS011;61291;52.524;13.422;2023-10-08T06:26:01;93.07;;;86.30;;
5710;SDS011;61291;52.524;13.422;2023-10-08T06:28:49;67.45;;;62.05;;
5710;SDS011;61291;52.524;13.422;2023-10-08T06:31:22;87.67;;;81.57;;
5710;SDS011;61291;52.524;13.422;2023-10-08T06:33:49;87.90;;;81.47;;
5710;SDS011;61291;52.524;13.422;2023-10-08T06:36:15;94.30;;;87.27;;
5710;SDS011;61291;52.524;13.422;2023-10-08T06:38:44;92.90;;;86.53;;
5710;SDS011;61291;52.524;13.422;2023-10-08T06:41:14;92.53;;;84.67;;
5710;SDS011;61291;52.524;13.422;2023-10-08T06:43:43;95.43;;;88.90;;
5710;SDS011;61291;52.524;13.422;2023-10-08T06:46:27;94.77;;;88.40;;
5710;SDS011;61291;52.524;13.422;2023-10-08T06:48:54;91.20;;;85.13;;
5710;SDS011;61291;52.524;13.422;2023-10-08T06:51:19;88.37;;;81.90;;
5710;SDS011;61291;52.524;13.422;2023-10-08T06:53:45;89.07;;;82.80;;
5710;SDS011;61291;52.524;13.422;2023-10-08T06:56:15;82.87;;;77.47;;
5710;SDS011;61291;52.524;13.422;2023-10-08T06:58:43;85.70;;;80.00;;
5710;SDS011;61291;52.524;13.422;2023-10-08T07:01:18;81.77;;;76.27;;
5710;SDS011;61291;52.524;13.422;2023-10-08T07:03:49;82.37;;;76.00;;
5710;SDS011;61291;52.524;13.422;2023-10-08T07:06:15;79.50;;;73.93;;
5710;SDS011;61291;52.524;13.422;2023-10-08T07:08:56;80.20;;;73.83;;
5710;SDS011;61291;52.524;13.422;2023-10-08T07:11:24;79.83;;;74.10;;
5710;SDS011;61291;52.524;13.422;2023-10-08T07:13:51;81.87;;;76.13;;
5710;SDS011;61291;52.524;13.422;2023-10-08T07:16:18;85.90;;;79.67;;
5710;SDS011;61291;52.524;13.422;2023-10-08T07:18:45;86.13;;;80.17;;
5710;SDS011;61291;52.524;13.422;2023-10-08T07:21:17;84.77;;;79.13;;
5710;SDS011;61291;52.524;13.422;2023-10-08T07:23:48;81.60;;;75.43;;
5710;SDS011;61291;52.524;13.422;2023-10-08T07:26:28;84.00;;;77.93;;
5710;SDS011;61291;52.524;13.422;2023-10-08T07:29:04;81.83;;;76.30;;
5710;SDS011;61291;52.524;13.422;2023-10-08T07:31:34;79.90;;;74.10;;
5710;SDS011;61291;52.524;13.422;2023-10-08T07:34:06;80.97;;;75.73;;
5710;SDS011;61291;52.524;13.422;2023-10-08T07:36:43;81.80;;;75.67;;
5710;SDS011;61291;52.524;13.422;2023-10-08T07:39:14;77.47;;;72.27;;
5710;SDS011;61291;52.524;13.422;2023-10-08T07:42:01;77.90;;;72.80;;
5710;SDS011;61291;52.524;13.422;2023-10-08T07:44:30;82.40;;;76.93;;
5710;SDS011;61291;52.524;13.422;2023-10-08T07:46:56;73.05;;;68.07;;
5710;SDS011;61291;52.524;13.422;2023-10-08T07:49:25;75.87;;;70.97;;
5710;SDS011;61291;52.524;13.422;2023-10-08T07:51:55;79.30;;;73.40;;
5710;SDS011;61291;52.524;13.422;2023-10-08T07:54:21;76.90;;;72.00;;
5710;SDS011;61291;52.524;13.422;2023-10-08T07:56:48;75.20;;;70.10;;
5710;SDS011;61291;52.524;13.422;2023-10-08T07:59:14;82.77;;;77.07;;
5710;SDS011;61291;52.524;13.422;2023-10-08T08:01:41;74.90;;;69.80;;
5710;SDS011;61291;52.524;13.422;2023-10-08T08:04:11;71.50;;;66.90;;
5710;SDS011;61291;52.524;13.422;2023-10-08T08:06:39;72.27;;;66.90;;
5710;SDS011;61291;52.524;13.422;2023-10-08T08:09:05;77.93;;;72.77;;
5710;SDS011;61291;52.524;13.422;2023-10-08T08:11:42;72.13;;;67.13;;
5710;SDS011;61291;52.524;13.422;2023-10-08T08:14:10;70.90;;;65.90;;
5710;SDS011;61291;52.524;13.422;2023-10-08T08:16:36;72.37;;;67.43;;
5710;SDS011;61291;52.524;13.422;2023-10-08T08:19:02;71.20;;;66.27;;
5710;SDS011;61291;52.524;13.422;2023-10-08T08:21:28;70.07;;;65.47;;
5710;SDS011;61291;52.524;13.422;2023-10-08T08:23:55;71.60;;;66.23;;
5710;SDS011;61291;52.524;13.422;2023-10-08T08:26:29;68.60;;;63.90;;
5710;SDS011;61291;52.524;13.422;2023-10-08T08:28:57;75.83;;;70.53;;
5710;SDS011;61291;52.524;13.422;2023-10-08T08:31:25;68.73;;;63.93;;
5710;SDS011;61291;52.524;13.422;2023-10-08T08:33:52;71.17;;;66.30;;
5710;SDS011;61291;52.524;13.422;2023-10-08T08:36:21;68.93;;;64.23;;
5710;SDS011;61291;52.524;13.422;2023-10-08T08:38:47;74.37;;;69.33;;
5710;SDS011;61291;52.524;13.422;2023-10-08T08:41:13;70.57;;;65.87;;
5710;SDS011;61291;52.524;13.422;2023-10-08T08:43:42;74.90;;;70.00;;
5710;SDS011;61291;52.524;13.422;2023-10-08T08:46:21;74.37;;;69.57;;
5710;SDS011;61291;52.524;13.422;2023-10-08T08:48:52;69.77;;;64.37;;
5710;SDS011;61291;52.524;13.422;2023-10-08T08:51:18;71.07;;;66.37;;
5710;SDS011;61291;52.524;13.422;2023-10-08T08:53:47;67.70;;;63.10;;
5710;SDS011;61291;52.524;13.422;2023-10-08T08:56:12;67.53;;;62.80;;
5710;SDS011;61291;52.524;13.422;2023-10-08T08:58:38;73.77;;;68.47;;
5710;SDS011;61291;52.524;13.422;2023-10-08T09:01:06;75.33;;;69.60;;
5710;SDS011;61291;52.524;13.422;2023-10-08T09:03:34;70.73;;;65.93;;
5710;SDS011;61291;52.524;13.422;2023-10-08T09:06:02;71.00;;;66.20;;
5710;SDS011;61291;52.524;13.422;2023-10-08T09:08:33;71.63;;;66.93;;
5710;SDS011;61291;52.524;13.422;2023-10-08T09:10:59;70.57;;;65.87;;
5710;SDS011;61291;52.524;13.422;2023-10-08T09:13:30;68.23;;;63.73;;
5710;SDS011;61291;52.524;13.422;2023-10-08T09:16:01;75.83;;;70.63;;
5710;SDS011;61291;52.524;13.422;2023-10-08T09:18:41;70.47;;;65.87;;
5710;SDS011;61291;52.524;13.422;2023-10-08T09:21:09;62.72;;;58.42;;
5710;SDS011;61291;52.524;13.422;2023-10-08T09:23:39;74.80;;;69.67;;
5710;SDS011;61291;52.524;13.422;2023-10-08T09:26:09;75.20;;;70.20;;
5710;SDS011;61291;52.524;13.422;2023-10-08T09:28:36;75.87;;;70.70;;
5710;SDS011;61291;52.524;13.422;2023-10-08T09:31:04;71.57;;;66.80;;
5710;SDS011;61291;52.524;13.422;2023-10-08T09:33:31;74.90;;;69.93;;
5710;SDS011;61291;52.524;13.422;2023-10-08T09:35:58;71.40;;;66.30;;
5710;SDS011;61291;52.524;13.422;2023-10-08T09:38:27;67.77;;;62.80;;
5710;SDS011;61291;52.524;13.422;2023-10-08T09:40:55;70.53;;;65.93;;
5710;SDS011;61291;52.524;13.422;2023-10-08T09:43:22;65.93;;;61.63;;
5710;SDS011;61291;52.524;13.422;2023-10-08T09:45:52;64.20;;;60.10;;
5710;SDS011;61291;52.524;13.422;2023-10-08T09:48:21;70.40;;;65.83;;
5710;SDS011;61291;52.524;13.422;2023-10-08T09:50:49;58.38;;;54.55;;
5710;SDS011;61291;52.524;13.422;2023-10-08T09:53:17;63.13;;;59.00;;
5710;SDS011;61291;52.524;13.422;2023-10-08T09:55:53;67.13;;;62.73;;
5710;SDS011;61291;52.524;13.422;2023-10-08T09:58:22;63.13;;;58.80;;
5710;SDS011;61291;52.524;13.422;2023-10-08T10:00:49;63.07;;;58.87;;
5710;SDS011;61291;52.524;13.422;2023-10-08T10:03:16;63.97;;;59.37;;
5710;SDS011;61291;52.524;13.422;2023-10-08T10:05:43;63.03;;;58.63;;
5710;SDS011;61291;52.524;13.422;2023-10-08T10:08:10;61.70;;;57.43;;
5710;SDS011;61291;52.524;13.422;2023-10-08T10:10:36;60.80;;;56.80;;
5710;SDS011;61291;52.524;13.422;2023-10-08T10:13:03;67.33;;;62.60;;
5710;SDS011;61291;52.524;13.422;2023-10-08T10:15:32;65.57;;;61.37;;
5710;SDS011;61291;52.524;13.422;2023-10-08T10:18:09;69.10;;;64.60;;
5710;SDS011;61291;52.524;13.422;2023-10-08T10:20:38;70.07;;;65.03;;
5710;SDS011;61291;52.524;13.422;2023-10-08T10:23:33;68.47;;;63.97;;
5710;SDS011;61291;52.524;13.422;2023-10-08T10:31:32;75.57;;;70.67;;
5710;SDS011;61291;52.524;13.422;2023-10-08T10:34:05;76.60;;;71.80;;
5710;SDS011;61291;52.524;13.422;2023-10-08T10:36:33;66.50;;;62.33;;
5710;SDS011;61291;52.524;13.422;2023-10-08T10:39:02;71.87;;;67.00;;
5710;SDS011;61291;52.524;13.422;2023-10-08T10:41:47;74.83;;;70.13;;
5710;SDS011;61291;52.524;13.422;2023-10-08T10:44:14;74.77;;;69.87;;
5710;SDS011;61291;52.524;13.422;2023-10-08T10:46:43;66.27;;;61.93;;
5710;SDS011;61291;52.524;13.422;2023-10-08T10:49:20;76.93;;;71.93;;
5710;SDS011;61291;52.524;13.422;2023-10-08T10:52:01;77.97;;;72.87;;
5710;SDS011;61291;52.524;13.422;2023-10-08T10:54:30;79.00;;;73.93;;
5710;SDS011;61291;52.524;13.422;2023-10-08T10:57:01;75.10;;;70.10;;
5710;SDS011;61291;52.524;13.422;2023-10-08T10:59:30;68.30;;;63.80;;
5710;SDS011;61291;52.524;13.422;2023-10-08T11:02:02;70.57;;;65.97;;
5710;SDS011;61291;52.524;13.422;2023-10-08T11:04:46;75.40;;;70.50;;
5710;SDS011;61291;52.524;13.422;2023-10-08T11:07:16;64.28;;;60.20;;
5710;SDS011;61291;52.524;13.422;2023-10-08T11:09:45;66.63;;;62.37;;
5710;SDS011;61291;52.524;13.422;2023-10-08T11:12:20;72.80;;;68.10;;
5710;SDS011;61291;52.524;13.422;2023-10-08T11:14:54;71.43;;;66.60;;
5710;SDS011;61291;52.524;13.422;2023-10-08T11:17:22;66.33;;;62.07;;
5710;SDS011;61291;52.524;13.422;2023-10-08T11:19:49;71.83;;;67.13;;
5710;SDS011;61291;52.524;13.422;2023-10-08T11:22:16;71.07;;;66.37;;
5710;SDS011;61291;52.524;13.422;2023-10-08T11:24:43;69.77;;;65.13;;
5710;SDS011;61291;52.524;13.422;2023-10-08T11:27:12;72.03;;;67.10;;
5710;SDS011;61291;52.524;13.422;2023-10-08T11:29:42;74.97;;;70.07;;
5710;SDS011;61291;52.524;13.422;2023-10-08T11:32:10;63.10;;;59.00;;
5710;SDS011;61291;52.524;13.422;2023-10-08T11:34:37;66.65;;;62.15;;
5710;SDS011;61291;52.524;13.422;2023-10-08T11:37:04;75.80;;;70.43;;
5710;SDS011;61291;52.524;13.422;2023-10-08T11:39:44;64.53;;;60.33;;
5710;SDS011;61291;52.524;13.422;2023-10-08T11:42:14;74.67;;;69.87;;
5710;SDS011;61291;52.524;13.422;2023-10-08T11:44:58;70.77;;;66.20;;
5710;SDS011;61291;52.524;13.422;2023-10-08T11:47:53;68.63;;;64.23;;
5710;SDS011;61291;52.524;13.422;2023-10-08T11:50:22;70.90;;;66.30;;
5710;SDS011;61291;52.524;13.422;2023-10-08T11:52:55;66.03;;;61.73;;
5710;SDS011;61291;52.524;13.422;2023-10-08T11:55:28;66.43;;;61.93;;
5710;SDS011;61291;52.524;13.422;2023-10-08T11:57:54;70.77;;;66.10;;
5710;SDS011;61291;52.524;13.422;2023-10-08T12:00:20;70.50;;;65.90;;
5710;SDS011;61291;52.524;13.422;2023-10-08T12:02:51;70.93;;;66.37;;
5710;SDS011;61291;52.524;13.422;2023-10-08T12:05:19;69.50;;;65.00;;
5710;SDS011;61291;52.524;13.422;2023-10-08T12:07:48;69.00;;;64.40;;
5710;SDS011;61291;52.524;13.422;2023-10-08T12:10:16;65.23;;;60.83;;
5710;SDS011;61291;52.524;13.422;2023-10-08T12:12:47;68.83;;;64.43;;
5710;SDS011;61291;52.524;13.422;2023-10-08T12:15:13;67.70;;;63.10;;
5710;SDS011;61291;52.524;13.422;2023-10-08T12:17:44;62.50;;;58.40;;
5710;SDS011;61291;52.524;13.422;2023-10-08T12:20:18;58.80;;;55.10;;
5710;SDS011;61291;52.524;13.422;2023-10-08T12:22:50;59.43;;;55.10;;
5710;SDS011;61291;52.524;13.422;2023-10-08T12:25:16;61.00;;;57.20;;
5710;SDS011;61291;52.524;13.422;2023-10-08T12:27:41;63.17;;;59.17;;
5710;SDS011;61291;52.524;13.422;2023-10-08T12:30:07;63.77;;;59.77;;
5710;SDS011;61291;52.524;13.422;2023-10-08T12:32:35;59.87;;;56.17;;
5710;SDS011;61291;52.524;13.422;2023-10-08T12:35:05;69.00;;;64.17;;
5710;SDS011;61291;52.524;13.422;2023-10-08T12:37:37;62.57;;;58.57;;
5710;SDS011;61291;52.524;13.422;2023-10-08T12:40:06;65.73;;;61.47;;
5710;SDS011;61291;52.524;13.422;2023-10-08T12:42:47;54.15;;;50.75;;
5710;SDS011;61291;52.524;13.422;2023-10-08T12:45:15;66.93;;;62.70;;
5710;SDS011;61291;52.524;13.422;2023-10-08T12:47:45;64.07;;;60.07;;
5710;SDS011;61291;52.524;13.422;2023-10-08T12:50:12;70.30;;;65.70;;
5710;SDS011;61291;52.524;13.422;2023-10-08T12:52:40;61.22;;;57.33;;
5710;SDS011;61291;52.524;13.422;2023-10-08T12:55:12;69.23;;;64.87;;
5710;SDS011;61291;52.524;13.422;2023-10-08T12:57:37;71.00;;;66.30;;
5710;SDS011;61291;52.524;13.422;2023-10-08T13:00:04;70.00;;;65.70;;
5710;SDS011;61291;52.524;13.422;2023-10-08T13:02:30;67.03;;;62.97;;
5710;SDS011;61291;52.524;13.422;2023-10-08T13:04:56;62.30;;;58.50;;
5710;SDS011;61291;52.524;13.422;2023-10-08T13:07:23;71.50;;;66.97;;
5710;SDS011;61291;52.524;13.422;2023-10-08T13:09:51;64.23;;;60.13;;
5710;SDS011;61291;52.524;13.422;2023-10-08T13:12:17;62.33;;;58.30;;
5710;SDS011;61291;52.524;13.422;2023-10-08T13:14:42;63.07;;;59.17;;
5710;SDS011;61291;52.524;13.422;2023-10-08T13:17:09;65.33;;;61.03;;
5710;SDS011;61291;52.524;13.422;2023-10-08T13:19:36;63.13;;;59.13;;
5710;SDS011;61291;52.524;13.422;2023-10-08T13:22:02;64.57;;;60.33;;
5710;SDS011;61291;52.524;13.422;2023-10-08T13:24:31;62.70;;;58.50;;
5710;SDS011;61291;52.524;13.422;2023-10-08T13:26:57;64.40;;;60.27;;
5710;SDS011;61291;52.524;13.422;2023-10-08T13:29:24;63.20;;;59.10;;
5710;SDS011;61291;52.524;13.422;2023-10-08T13:31:51;66.10;;;61.80;;
5710;SDS011;61291;52.524;13.422;2023-10-08T13:34:19;67.57;;;63.23;;
5710;SDS011;61291;52.524;13.422;2023-10-08T13:36:46;62.63;;;58.63;;
5710;SDS011;61291;52.524;13.422;2023-10-08T13:39:14;66.53;;;62.23;;
5710;SDS011;61291;52.524;13.422;2023-10-08T13:41:46;62.57;;;58.67;;
5710;SDS011;61291;52.524;13.422;2023-10-08T13:44:13;64.13;;;60.03;;
5710;SDS011;61291;52.524;13.422;2023-10-08T13:46:39;58.63;;;55.03;;
5710;SDS011;61291;52.524;13.422;2023-10-08T13:49:08;68.93;;;64.67;;
5710;SDS011;61291;52.524;13.422;2023-10-08T13:51:35;60.97;;;57.20;;
5710;SDS011;61291;52.524;13.422;2023-10-08T13:54:03;66.27;;;62.27;;
5710;SDS011;61291;52.524;13.422;2023-10-08T13:56:32;64.07;;;59.93;;
5710;SDS011;61291;52.524;13.422;2023-10-08T13:58:58;64.83;;;60.73;;
5710;SDS011;61291;52.524;13.422;2023-10-08T14:01:37;65.93;;;61.93;;
5710;SDS011;61291;52.524;13.422;2023-10-08T14:04:05;66.13;;;61.83;;
5710;SDS011;61291;52.524;13.422;2023-10-08T14:06:31;72.13;;;67.23;;
5710;SDS011;61291;52.524;13.422;2023-10-08T14:09:01;70.30;;;65.90;;
5710;SDS011;61291;52.524;13.422;2023-10-08T14:11:34;68.13;;;63.97;;
5710;SDS011;61291;52.524;13.422;2023-10-08T14:14:00;69.80;;;65.30;;
5710;SDS011;61291;52.524;13.422;2023-10-08T14:16:28;69.60;;;65.30;;
5710;SDS011;61291;52.524;13.422;2023-10-08T14:18:54;68.37;;;64.10;;
5710;SDS011;61291;52.524;13.422;2023-10-08T14:21:22;72.60;;;68.17;;
5710;SDS011;61291;52.524;13.422;2023-10-08T14:23:55;67.70;;;63.40;;
5710;SDS011;61291;52.524;13.422;2023-10-08T14:26:21;65.63;;;61.50;;
5710;SDS011;61291;52.524;13.422;2023-10-08T14:28:48;66.67;;;62.57;;
5710;SDS011;61291;52.524;13.422;2023-10-08T14:31:23;62.87;;;58.50;;
5710;SDS011;61291;52.524;13.422;2023-10-08T14:33:51;61.70;;;57.80;;
5710;SDS011;61291;52.524;13.422;2023-10-08T14:36:35;67.30;;;63.10;;
5710;SDS011;61291;52.524;13.422;2023-10-08T14:39:19;64.40;;;60.40;;
5710;SDS011;61291;52.524;13.422;2023-10-08T14:42:03;54.88;;;51.38;;
5710;SDS011;61291;52.524;13.422;2023-10-08T14:44:47;65.73;;;61.30;;
5710;SDS011;61291;52.524;13.422;2023-10-08T14:47:15;63.00;;;59.10;;
5710;SDS011;61291;52.524;13.422;2023-10-08T14:49:41;66.80;;;62.60;;
5710;SDS011;61291;52.524;13.422;2023-10-08T14:52:10;70.03;;;64.97;;
5710;SDS011;61291;52.524;13.422;2023-10-08T14:54:36;69.33;;;64.93;;